createdAt,value
2022-08-04T00:00:14.027Z,26.00
2022-08-04T00:02:49.833Z,25.90
2022-08-04T00:05:22.492Z,25.90
2022-08-04T00:08:01.144Z,25.80
2022-08-04T00:10:29.195Z,25.80
2022-08-04T00:12:58.797Z,25.80
2022-08-04T00:15:27.192Z,25.70
2022-08-04T00:18:04.709Z,25.70
2022-08-04T00:20:35.097Z,25.60
2022-08-04T00:23:03.218Z,25.60
2022-08-04T00:25:30.635Z,25.60
2022-08-04T00:28:02.623Z,25.60
2022-08-04T00:30:29.829Z,25.50
2022-08-04T00:32:58.465Z,25.40
2022-08-04T00:35:25.709Z,25.50
2022-08-04T00:37:53.944Z,25.40
2022-08-04T00:40:36.339Z,25.30
2022-08-04T00:43:21.239Z,25.30
2022-08-04T00:46:17.472Z,25.30
2022-08-04T00:48:59.343Z,25.20
2022-08-04T00:51:46.968Z,25.20
2022-08-04T00:54:48.130Z,25.20
2022-08-04T00:57:36.624Z,25.20
2022-08-04T01:00:10.566Z,25.20
2022-08-04T01:02:54.866Z,25.10
2022-08-04T01:05:26.844Z,25.00
2022-08-04T01:08:05.980Z,24.90
2022-08-04T01:11:11.809Z,24.80
2022-08-04T01:14:05.122Z,24.80
2022-08-04T01:16:35.124Z,24.80
2022-08-04T01:19:41.762Z,24.80
2022-08-04T01:22:29.106Z,24.70
2022-08-04T01:25:24.149Z,24.60
2022-08-04T01:28:13.250Z,24.60
2022-08-04T01:30:43.011Z,24.50
2022-08-04T01:33:14.590Z,24.40
2022-08-04T01:36:13.764Z,24.40
2022-08-04T01:38:43.460Z,24.30
2022-08-04T01:41:14.817Z,24.20
2022-08-04T01:43:44.255Z,24.10
2022-08-04T01:46:14.170Z,24.10
2022-08-04T01:48:44.488Z,24.20
2022-08-04T01:51:11.617Z,24.30
2022-08-04T01:53:41.416Z,24.30
2022-08-04T01:56:11.349Z,24.40
2022-08-04T01:58:39.740Z,24.30
2022-08-04T02:01:09.598Z,24.30
2022-08-04T02:04:18.439Z,24.30
2022-08-04T02:06:32.803Z,24.30
2022-08-04T02:09:31.279Z,24.30
2022-08-04T02:12:26.370Z,24.20
2022-08-04T02:15:11.865Z,24.20
2022-08-04T02:17:59.609Z,24.10
2022-08-04T02:20:37.677Z,24.20
2022-08-04T02:23:29.000Z,24.20
2022-08-04T02:26:02.508Z,24.20
2022-08-04T02:28:44.941Z,24.10
2022-08-04T02:31:28.844Z,24.00
2022-08-04T02:34:06.266Z,23.90
2022-08-04T02:36:52.864Z,23.90
2022-08-04T02:39:21.916Z,23.80
2022-08-04T02:41:54.620Z,23.70
2022-08-04T02:44:23.256Z,23.70
2022-08-04T02:46:54.806Z,23.60
2022-08-04T02:49:23.280Z,23.60
2022-08-04T02:51:55.252Z,23.60
2022-08-04T02:54:39.992Z,23.60
2022-08-04T02:57:11.969Z,23.60
2022-08-04T02:59:47.830Z,23.70
2022-08-04T03:02:17.133Z,23.80
2022-08-04T03:04:44.015Z,23.80
2022-08-04T03:07:35.209Z,23.80
2022-08-04T03:10:21.442Z,23.80
2022-08-04T03:12:59.004Z,23.70
2022-08-04T03:15:48.424Z,23.60
2022-08-04T03:18:24.032Z,23.60
2022-08-04T03:21:20.624Z,23.70
2022-08-04T03:24:05.619Z,23.70
2022-08-04T03:27:02.949Z,23.70
2022-08-04T03:29:35.894Z,23.50
2022-08-04T03:32:28.239Z,23.60
2022-08-04T03:35:22.950Z,23.50
2022-08-04T03:38:08.512Z,23.60
2022-08-04T03:40:38.477Z,23.50
2022-08-04T03:43:08.041Z,23.50
2022-08-04T03:45:44.008Z,23.50
2022-08-04T03:48:20.869Z,23.60
2022-08-04T03:51:34.909Z,23.60
2022-08-04T03:54:15.302Z,23.60
2022-08-04T03:57:05.543Z,23.60
2022-08-04T03:59:53.689Z,23.50
2022-08-04T04:02:54.613Z,23.50
2022-08-04T04:05:55.982Z,23.50
2022-08-04T04:08:41.477Z,23.40
2022-08-04T04:11:57.231Z,23.20
2022-08-04T04:14:46.152Z,23.20
2022-08-04T04:18:03.206Z,23.10
2022-08-04T04:20:30.096Z,23.10
2022-08-04T04:23:01.573Z,23.00
2022-08-04T04:25:55.363Z,23.00
2022-08-04T04:28:50.223Z,23.00
2022-08-04T04:31:50.168Z,23.00
2022-08-04T04:34:25.878Z,23.10
2022-08-04T04:37:01.498Z,23.10
2022-08-04T04:39:52.078Z,23.00
2022-08-04T04:42:27.973Z,23.10
2022-08-04T04:45:09.365Z,23.10
2022-08-04T04:48:07.685Z,23.10
2022-08-04T04:50:37.320Z,23.00
2022-08-04T04:53:29.940Z,23.00
2022-08-04T04:56:07.124Z,22.90
2022-08-04T04:58:35.866Z,23.00
2022-08-04T05:01:29.615Z,23.00
2022-08-04T05:04:17.112Z,22.90
2022-08-04T05:07:27.941Z,22.70
2022-08-04T05:10:22.483Z,22.70
2022-08-04T05:14:38.679Z,22.60
2022-08-04T05:16:25.953Z,22.60
2022-08-04T05:19:10.405Z,22.60
2022-08-04T05:21:44.092Z,22.50
2022-08-04T05:24:14.142Z,22.60
2022-08-04T05:26:46.073Z,22.70
2022-08-04T05:29:22.179Z,22.70
2022-08-04T05:32:02.961Z,22.80
2022-08-04T05:34:35.680Z,22.90
2022-08-04T05:37:17.918Z,23.10
2022-08-04T05:39:49.132Z,23.20
2022-08-04T05:42:17.024Z,23.30
2022-08-04T05:44:50.404Z,23.40
2022-08-04T05:47:20.504Z,23.50
2022-08-04T05:49:55.562Z,23.50
2022-08-04T05:52:30.622Z,23.50
2022-08-04T05:54:59.543Z,23.50
2022-08-04T05:57:26.963Z,23.60
2022-08-04T05:59:56.775Z,23.60
2022-08-04T06:02:24.581Z,23.70
2022-08-04T06:04:53.351Z,23.80
2022-08-04T06:07:20.800Z,23.90
2022-08-04T06:09:48.223Z,23.90
2022-08-04T06:12:19.408Z,23.90
2022-08-04T06:14:49.917Z,23.90
2022-08-04T06:18:33.024Z,23.90
2022-08-04T06:20:19.985Z,23.90
2022-08-04T06:22:54.052Z,23.80
2022-08-04T06:25:25.732Z,23.80
2022-08-04T06:27:53.365Z,23.80
2022-08-04T06:30:26.291Z,23.80
2022-08-04T06:33:03.946Z,23.70
2022-08-04T06:35:32.841Z,23.70
2022-08-04T06:38:01.780Z,23.70
2022-08-04T06:40:33.371Z,23.80
2022-08-04T06:43:06.607Z,23.90
2022-08-04T06:45:39.913Z,24.00
2022-08-04T06:48:07.949Z,24.10
2022-08-04T06:51:24.795Z,24.30
2022-08-04T06:53:26.047Z,24.30
2022-08-04T06:55:53.940Z,24.50
2022-08-04T06:58:22.064Z,24.70
2022-08-04T07:00:50.867Z,24.80
2022-08-04T07:03:19.249Z,24.90
2022-08-04T07:05:51.277Z,25.10
2022-08-04T07:08:19.245Z,25.20
2022-08-04T07:10:46.570Z,25.30
2022-08-04T07:13:14.475Z,25.30
2022-08-04T07:15:44.234Z,25.30
2022-08-04T07:18:11.337Z,25.30
2022-08-04T07:20:42.273Z,25.20
2022-08-04T07:23:12.070Z,25.30
2022-08-04T07:25:58.932Z,25.40
2022-08-04T07:28:28.534Z,25.60
2022-08-04T07:30:57.527Z,25.70
2022-08-04T07:33:25.883Z,25.80
2022-08-04T07:36:08.381Z,26.00
2022-08-04T07:38:48.481Z,26.00
2022-08-04T07:41:40.381Z,26.10
2022-08-04T07:44:08.461Z,26.20
2022-08-04T07:46:37.115Z,26.10
2022-08-04T07:49:05.538Z,26.00
2022-08-04T07:51:35.436Z,25.90
2022-08-04T07:54:05.094Z,25.70
2022-08-04T07:56:33.908Z,25.50
2022-08-04T07:59:01.477Z,25.40
2022-08-04T08:01:29.132Z,25.40
2022-08-04T08:03:57.776Z,25.30
2022-08-04T08:06:34.036Z,25.20
2022-08-04T08:09:13.126Z,25.10
2022-08-04T08:12:37.065Z,24.90
2022-08-04T08:14:35.585Z,24.50
2022-08-04T08:17:03.585Z,24.20
2022-08-04T08:19:34.931Z,24.00
2022-08-04T08:22:02.303Z,23.80
2022-08-04T08:24:36.164Z,23.80
2022-08-04T08:27:07.214Z,23.60
2022-08-04T08:29:35.462Z,23.40
2022-08-04T08:32:08.258Z,23.20
2022-08-04T08:34:36.352Z,22.90
2022-08-04T08:37:24.488Z,22.70
2022-08-04T08:40:18.249Z,22.60
2022-08-04T08:44:04.670Z,22.60
2022-08-04T08:46:56.423Z,22.60
2022-08-04T08:50:02.101Z,22.60
2022-08-04T08:52:57.399Z,22.80
2022-08-04T08:56:06.595Z,22.90
2022-08-04T08:59:15.218Z,22.90
2022-08-04T09:02:20.047Z,23.00
2022-08-04T09:05:04.358Z,23.00
2022-08-04T09:08:01.924Z,23.00
2022-08-04T09:10:33.819Z,23.20
2022-08-04T09:13:16.571Z,23.30
2022-08-04T09:16:03.608Z,23.30
2022-08-04T09:18:37.067Z,23.10
2022-08-04T09:21:18.817Z,23.00
2022-08-04T09:23:57.141Z,22.70
2022-08-04T09:26:32.123Z,22.70
2022-08-04T09:29:29.652Z,22.80
2022-08-04T09:32:27.506Z,22.90
2022-08-04T09:35:16.296Z,23.10
2022-08-04T09:38:02.003Z,23.20
2022-08-04T09:40:52.416Z,23.20
2022-08-04T09:43:59.151Z,23.20
2022-08-04T09:46:37.272Z,23.20
2022-08-04T09:49:15.131Z,23.20
2022-08-04T09:51:57.261Z,23.20
2022-08-04T09:54:48.481Z,23.40
2022-08-04T09:57:41.799Z,23.80
2022-08-04T10:00:11.174Z,24.20
2022-08-04T10:02:55.155Z,24.50
2022-08-04T10:05:28.482Z,24.70
2022-08-04T10:08:16.235Z,25.00
2022-08-04T10:11:14.743Z,25.50
2022-08-04T10:13:41.583Z,25.90
2022-08-04T10:16:08.600Z,26.20
2022-08-04T10:18:54.269Z,26.40
2022-08-04T10:22:30.731Z,26.70
2022-08-04T10:26:02.540Z,27.10
2022-08-04T10:28:15.646Z,27.30
2022-08-04T10:30:52.183Z,27.40
2022-08-04T10:33:26.481Z,27.50
2022-08-04T10:36:16.261Z,27.90
2022-08-04T10:38:51.893Z,28.30
2022-08-04T10:41:35.101Z,28.60
2022-08-04T10:44:23.563Z,29.30
2022-08-04T10:46:56.213Z,29.80
2022-08-04T10:49:37.287Z,29.90
2022-08-04T10:52:20.882Z,30.20
2022-08-04T10:54:56.305Z,30.40
2022-08-04T10:57:44.259Z,30.60
2022-08-04T11:00:21.730Z,30.80
2022-08-04T11:03:08.725Z,31.00
2022-08-04T11:05:59.085Z,31.10
2022-08-04T11:08:33.413Z,30.70
2022-08-04T11:11:12.889Z,30.50
2022-08-04T11:14:10.878Z,30.40
2022-08-04T11:16:47.453Z,30.00
2022-08-04T11:19:44.825Z,29.70
2022-08-04T11:22:23.765Z,29.40
2022-08-04T11:25:07.094Z,29.20
2022-08-04T11:28:03.624Z,29.10
2022-08-04T11:30:57.513Z,28.90
2022-08-04T11:33:33.372Z,28.70
2022-08-04T11:36:21.750Z,28.60
2022-08-04T11:38:51.940Z,28.70
2022-08-04T11:41:26.780Z,28.80
2022-08-04T11:44:04.889Z,28.90
2022-08-04T11:46:45.740Z,29.10
2022-08-04T11:49:26.747Z,29.50
2022-08-04T11:51:56.437Z,29.90
2022-08-04T11:54:23.619Z,30.20
2022-08-04T11:56:51.580Z,30.20
2022-08-04T11:59:22.563Z,30.20
2022-08-04T12:02:11.259Z,30.50
2022-08-04T12:04:54.926Z,30.70
2022-08-04T12:08:03.065Z,31.10
2022-08-04T12:10:43.138Z,31.60
2022-08-04T12:13:24.677Z,31.70
2022-08-04T12:16:15.971Z,32.20
2022-08-04T12:18:57.650Z,32.60
2022-08-04T12:21:37.677Z,32.80
2022-08-04T12:24:15.898Z,33.10
2022-08-04T12:26:54.241Z,33.60
2022-08-04T12:29:24.122Z,34.00
2022-08-04T12:32:17.214Z,34.10
2022-08-04T12:35:00.771Z,34.30
2022-08-04T12:37:35.374Z,34.10
2022-08-04T12:40:28.956Z,34.30
2022-08-04T12:43:03.277Z,34.10
2022-08-04T12:45:31.403Z,34.90
2022-08-04T12:48:00.856Z,35.60
2022-08-04T12:50:28.866Z,36.50
2022-08-04T12:53:03.039Z,37.20
2022-08-04T12:55:35.488Z,38.60
2022-08-04T12:58:04.274Z,39.30
2022-08-04T13:00:41.101Z,40.30
2022-08-04T13:03:16.907Z,41.30
2022-08-04T13:05:45.730Z,42.90
2022-08-04T13:08:15.479Z,43.70
2022-08-04T13:10:48.689Z,43.80
2022-08-04T13:13:21.601Z,44.50
2022-08-04T13:16:00.486Z,44.50
2022-08-04T13:18:32.497Z,44.10
2022-08-04T13:21:50.540Z,43.30
2022-08-04T13:24:21.914Z,41.80
2022-08-04T13:27:16.127Z,40.70
2022-08-04T13:29:59.695Z,39.70
2022-08-04T13:32:31.111Z,39.20
2022-08-04T13:35:00.930Z,38.70
2022-08-04T13:37:36.635Z,39.10
2022-08-04T13:40:06.556Z,39.30
2022-08-04T13:42:36.294Z,38.50
2022-08-04T13:45:06.419Z,37.40
2022-08-04T13:47:39.986Z,36.90
2022-08-04T13:50:21.716Z,36.80
2022-08-04T13:52:54.074Z,36.60
2022-08-04T13:55:25.876Z,36.00
2022-08-04T13:58:14.423Z,35.60
2022-08-04T14:00:58.682Z,35.40
2022-08-04T14:03:53.553Z,34.80
2022-08-04T14:06:36.765Z,35.00
2022-08-04T14:09:15.093Z,35.50
2022-08-04T14:12:10.642Z,36.80
2022-08-04T14:14:44.168Z,39.10
2022-08-04T14:17:30.052Z,40.70
2022-08-04T14:20:00.195Z,41.30
2022-08-04T14:22:27.190Z,42.60
2022-08-04T14:25:04.442Z,44.20
2022-08-04T14:27:41.663Z,45.20
2022-08-04T14:30:38.367Z,45.10
2022-08-04T14:34:02.118Z,45.10
2022-08-04T14:36:04.358Z,44.70
2022-08-04T14:38:56.419Z,44.60
2022-08-04T14:41:28.413Z,44.60
2022-08-04T14:44:00.025Z,45.40
2022-08-04T14:46:36.167Z,46.50
2022-08-04T14:49:13.251Z,47.60
2022-08-04T14:51:41.867Z,48.40
2022-08-04T14:54:18.838Z,48.60
2022-08-04T14:56:57.987Z,48.50
2022-08-04T14:59:25.724Z,48.50
2022-08-04T15:02:00.380Z,48.90
2022-08-04T15:04:31.564Z,49.40
2022-08-04T15:07:00.666Z,48.80
2022-08-04T15:09:33.493Z,48.20
2022-08-04T15:12:00.563Z,47.20
2022-08-04T15:14:36.948Z,46.50
2022-08-04T15:17:11.888Z,45.80
2022-08-04T15:19:39.563Z,45.40
2022-08-04T15:22:07.368Z,44.10
2022-08-04T15:24:44.788Z,42.70
2022-08-04T15:27:21.124Z,42.70
2022-08-04T15:29:59.428Z,43.40
2022-08-04T15:32:34.643Z,44.10
2022-08-04T15:35:28.117Z,44.80
2022-08-04T15:37:59.084Z,43.90
2022-08-04T15:40:32.701Z,42.80
2022-08-04T15:43:23.600Z,41.40
2022-08-04T15:46:40.964Z,40.10
2022-08-04T15:48:40.995Z,38.70
2022-08-04T15:51:14.456Z,38.20
2022-08-04T15:54:03.712Z,37.40
2022-08-04T15:56:29.787Z,36.90
2022-08-04T15:58:57.765Z,36.20
2022-08-04T16:01:25.516Z,35.80
2022-08-04T16:04:00.010Z,35.60
2022-08-04T16:06:29.751Z,35.00
2022-08-04T16:09:02.163Z,34.30
2022-08-04T16:11:31.507Z,33.30
2022-08-04T16:14:01.626Z,32.80
2022-08-04T16:16:51.420Z,32.50
2022-08-04T16:19:34.936Z,32.30
2022-08-04T16:22:04.645Z,32.10
2022-08-04T16:24:42.532Z,31.80
2022-08-04T16:27:11.637Z,31.70
2022-08-04T16:29:41.767Z,32.00
2022-08-04T16:32:18.291Z,32.60
2022-08-04T16:35:04.333Z,33.10
2022-08-04T16:37:36.020Z,33.60
2022-08-04T16:40:34.462Z,33.90
2022-08-04T16:43:09.257Z,34.20
2022-08-04T16:45:45.642Z,34.00
2022-08-04T16:48:15.416Z,33.90
2022-08-04T16:50:57.487Z,33.90
2022-08-04T16:53:52.055Z,33.80
2022-08-04T16:56:30.080Z,33.80
2022-08-04T16:58:57.441Z,34.00
2022-08-04T17:01:33.516Z,34.00
2022-08-04T17:04:06.639Z,33.90
2022-08-04T17:06:36.999Z,34.00
2022-08-04T17:09:17.411Z,34.10
2022-08-04T17:11:45.920Z,34.00
2022-08-04T17:14:13.747Z,33.70
2022-08-04T17:16:44.068Z,33.60
2022-08-04T17:19:19.921Z,33.30
2022-08-04T17:21:53.139Z,33.10
2022-08-04T17:24:20.301Z,32.10
2022-08-04T17:26:54.487Z,31.60
2022-08-04T17:29:43.477Z,31.20
2022-08-04T17:32:22.147Z,31.10
2022-08-04T17:34:51.470Z,30.60
2022-08-04T17:37:39.102Z,30.30
2022-08-04T17:40:14.404Z,29.90
2022-08-04T17:42:45.944Z,29.70
2022-08-04T17:45:50.675Z,29.20
2022-08-04T17:48:11.104Z,29.10
2022-08-04T17:50:51.555Z,28.90
2022-08-04T17:54:02.765Z,28.60
2022-08-04T17:56:51.498Z,28.40
2022-08-04T17:59:55.884Z,28.00
2022-08-04T18:02:10.489Z,27.90
2022-08-04T18:05:07.698Z,27.80
2022-08-04T18:08:38.803Z,27.60
2022-08-04T18:10:56.217Z,27.40
2022-08-04T18:13:28.551Z,27.40
2022-08-04T18:16:14.345Z,27.50
2022-08-04T18:19:12.584Z,27.40
2022-08-04T18:21:46.959Z,27.50
2022-08-04T18:24:33.888Z,27.40
2022-08-04T18:27:03.564Z,27.40
2022-08-04T18:29:38.977Z,27.30
2022-08-04T18:32:08.898Z,27.20
2022-08-04T18:34:40.914Z,27.10
2022-08-04T18:38:03.654Z,27.00
2022-08-04T18:40:31.181Z,26.80
2022-08-04T18:42:57.636Z,26.70
2022-08-04T18:45:33.788Z,26.60
2022-08-04T18:48:03.928Z,26.60
2022-08-04T18:53:18.280Z,26.60
2022-08-04T18:55:56.575Z,26.60
2022-08-04T18:58:28.123Z,26.60
2022-08-04T19:00:56.217Z,26.70
2022-08-04T19:03:32.935Z,26.70
2022-08-04T19:06:01.481Z,26.60
2022-08-04T19:08:32.972Z,26.50
2022-08-04T19:11:29.297Z,26.30
2022-08-04T19:13:58.114Z,25.90
2022-08-04T19:16:30.071Z,25.60
2022-08-04T19:18:58.196Z,25.10
2022-08-04T19:22:00.683Z,24.80
2022-08-04T19:24:32.939Z,24.40
2022-08-04T19:27:06.869Z,24.10
2022-08-04T19:29:40.580Z,23.60
2022-08-04T19:32:14.610Z,23.10
2022-08-04T19:34:46.433Z,22.50
2022-08-04T19:37:57.492Z,22.10
2022-08-04T19:40:04.752Z,21.90
2022-08-04T19:42:32.143Z,21.70
2022-08-04T19:44:59.399Z,21.60
2022-08-04T19:48:17.906Z,21.50
2022-08-04T19:50:14.181Z,21.50
2022-08-04T19:52:51.569Z,21.50
2022-08-04T19:55:37.689Z,21.40
2022-08-04T19:58:07.395Z,21.20
2022-08-04T20:00:37.302Z,21.10
2022-08-04T20:03:11.317Z,21.00
2022-08-04T20:05:55.152Z,21.00
2022-08-04T20:08:31.937Z,20.90
2022-08-04T20:11:00.210Z,20.90
2022-08-04T20:16:30.215Z,20.80
2022-08-04T20:19:02.688Z,20.70
2022-08-04T20:21:54.314Z,20.70
2022-08-04T20:24:41.516Z,20.70
2022-08-04T20:27:11.626Z,20.60
2022-08-04T20:29:48.983Z,20.60
2022-08-04T20:32:22.466Z,20.60
2022-08-04T20:34:52.046Z,20.50
2022-08-04T20:37:23.949Z,20.60
2022-08-04T20:39:58.048Z,20.50
2022-08-04T20:42:34.070Z,20.40
2022-08-04T20:45:02.307Z,20.50
2022-08-04T20:47:35.003Z,20.50
2022-08-04T20:50:09.702Z,20.50
2022-08-04T20:52:37.852Z,20.60
2022-08-04T20:55:06.306Z,20.50
2022-08-04T20:57:47.880Z,20.50
2022-08-04T21:00:16.396Z,20.60
2022-08-04T21:02:44.548Z,20.50
2022-08-04T21:05:11.824Z,20.50
2022-08-04T21:07:41.787Z,20.50
2022-08-04T21:10:11.039Z,20.50
2022-08-04T21:12:38.068Z,20.50
2022-08-04T21:15:14.176Z,20.50
2022-08-04T21:17:59.137Z,20.50
2022-08-04T21:20:31.422Z,20.50
2022-08-04T21:23:02.123Z,20.50
2022-08-04T21:25:31.073Z,20.50
2022-08-04T21:28:03.943Z,20.50
2022-08-04T21:30:36.893Z,20.50
2022-08-04T21:33:19.452Z,20.50
2022-08-04T21:35:46.910Z,20.50
2022-08-04T21:38:17.249Z,20.50
2022-08-04T21:41:03.256Z,20.50
2022-08-04T21:43:34.449Z,20.50
2022-08-04T21:46:11.475Z,20.60
2022-08-04T21:48:39.272Z,20.70
2022-08-04T21:51:55.714Z,20.80
2022-08-04T21:54:08.673Z,20.70
2022-08-04T21:56:39.210Z,20.70
2022-08-04T21:59:14.517Z,20.70
2022-08-04T22:01:52.350Z,20.80
2022-08-04T22:04:22.158Z,20.90
2022-08-04T22:06:52.554Z,21.00
2022-08-04T22:09:21.673Z,21.00
2022-08-04T22:11:51.507Z,21.10
2022-08-04T22:14:21.831Z,21.10
2022-08-04T22:16:56.511Z,21.10
2022-08-04T22:19:39.671Z,21.10
2022-08-04T22:22:13.587Z,21.00
2022-08-04T22:24:52.085Z,21.10
2022-08-04T22:27:38.110Z,21.10
2022-08-04T22:30:13.422Z,21.10
2022-08-04T22:32:46.603Z,21.20
2022-08-04T22:35:36.107Z,21.30
2022-08-04T22:38:07.761Z,21.30
2022-08-04T22:40:50.841Z,21.40
2022-08-04T22:43:31.835Z,21.50
2022-08-04T22:46:03.874Z,21.40
2022-08-04T22:48:33.587Z,21.50
2022-08-04T22:51:02.870Z,21.60
2022-08-04T22:53:30.916Z,21.60
2022-08-04T22:56:09.890Z,21.70
2022-08-04T22:58:51.324Z,21.70
2022-08-04T23:01:19.767Z,21.70
2022-08-04T23:03:55.532Z,21.80
2022-08-04T23:06:25.658Z,21.80
2022-08-04T23:09:03.292Z,21.80
2022-08-04T23:11:35.132Z,21.70
2022-08-04T23:14:09.384Z,21.80
2022-08-04T23:16:42.160Z,21.80
2022-08-04T23:19:16.483Z,21.70
2022-08-04T23:21:47.249Z,21.70
2022-08-04T23:24:20.177Z,21.70
2022-08-04T23:26:51.039Z,21.80
2022-08-04T23:29:22.477Z,21.80
2022-08-04T23:31:59.800Z,21.80
2022-08-04T23:34:34.755Z,21.70
2022-08-04T23:37:07.415Z,21.70
2022-08-04T23:40:03.355Z,21.80
2022-08-04T23:42:38.290Z,21.80
2022-08-04T23:45:56.984Z,21.70
2022-08-04T23:48:16.032Z,21.80
2022-08-04T23:50:51.497Z,21.80
2022-08-04T23:53:22.551Z,21.90
2022-08-04T23:56:01.774Z,22.00
2022-08-04T23:58:37.915Z,22.00
